sensor_id;sensor_type;location;lat;lon;timestamp;P1;durP1;ratioP1;P2;durP2;ratioP2
23720;SDS011;42950;52.134;5.578;2023-02-28T00:01:19;6.85;;;3.00;;
23720;SDS011;42950;52.134;5.578;2023-02-28T00:03:45;5.80;;;3.00;;
23720;SDS011;42950;52.134;5.578;2023-02-28T00:06:11;6.45;;;3.00;;
23720;SDS011;42950;52.134;5.578;2023-02-28T00:08:37;7.70;;;3.03;;
23720;SDS011;42950;52.134;5.578;2023-02-28T00:11:05;5.40;;;2.88;;
23720;SDS011;42950;52.134;5.578;2023-02-28T00:13:33;4.53;;;2.90;;
23720;SDS011;42950;52.134;5.578;2023-02-28T00:16:04;5.97;;;3.00;;
23720;SDS011;42950;52.134;5.578;2023-02-28T00:18:32;8.20;;;2.90;;
23720;SDS011;42950;52.134;5.578;2023-02-28T00:20:59;5.55;;;2.75;;
23720;SDS011;42950;52.134;5.578;2023-02-28T00:23:25;7.43;;;2.92;;
23720;SDS011;42950;52.134;5.578;2023-02-28T00:25:51;4.97;;;2.60;;
23720;SDS011;42950;52.134;5.578;2023-02-28T00:28:18;5.00;;;2.45;;
23720;SDS011;42950;52.134;5.578;2023-02-28T00:30:44;8.80;;;2.92;;
23720;SDS011;42950;52.134;5.578;2023-02-28T00:33:09;5.60;;;2.80;;
23720;SDS011;42950;52.134;5.578;2023-02-28T00:35:35;5.13;;;2.63;;
23720;SDS011;42950;52.134;5.578;2023-02-28T00:38:01;5.85;;;2.63;;
23720;SDS011;42950;52.134;5.578;2023-02-28T00:40:27;4.20;;;2.60;;
23720;SDS011;42950;52.134;5.578;2023-02-28T00:42:54;4.85;;;2.45;;
23720;SDS011;42950;52.134;5.578;2023-02-28T00:45:19;6.18;;;2.88;;
23720;SDS011;42950;52.134;5.578;2023-02-28T00:47:46;6.35;;;2.55;;
23720;SDS011;42950;52.134;5.578;2023-02-28T00:50:14;6.78;;;2.80;;
23720;SDS011;42950;52.134;5.578;2023-02-28T00:52:44;4.22;;;2.63;;
23720;SDS011;42950;52.134;5.578;2023-02-28T00:55:10;5.47;;;3.05;;
23720;SDS011;42950;52.134;5.578;2023-02-28T00:57:35;6.72;;;2.95;;
23720;SDS011;42950;52.134;5.578;2023-02-28T01:00:02;5.40;;;3.08;;
23720;SDS011;42950;52.134;5.578;2023-02-28T01:02:28;6.18;;;2.72;;
23720;SDS011;42950;52.134;5.578;2023-02-28T01:04:54;5.95;;;2.40;;
23720;SDS011;42950;52.134;5.578;2023-02-28T01:07:19;5.35;;;2.80;;
23720;SDS011;42950;52.134;5.578;2023-02-28T01:09:46;5.03;;;2.90;;
23720;SDS011;42950;52.134;5.578;2023-02-28T01:12:12;4.95;;;3.15;;
23720;SDS011;42950;52.134;5.578;2023-02-28T01:14:37;4.47;;;2.80;;
23720;SDS011;42950;52.134;5.578;2023-02-28T01:17:03;5.63;;;2.90;;
23720;SDS011;42950;52.134;5.578;2023-02-28T01:19:29;6.85;;;2.80;;
23720;SDS011;42950;52.134;5.578;2023-02-28T01:21:55;8.95;;;3.00;;
23720;SDS011;42950;52.134;5.578;2023-02-28T01:24:21;5.55;;;2.80;;
23720;SDS011;42950;52.134;5.578;2023-02-28T01:26:46;4.75;;;3.05;;
23720;SDS011;42950;52.134;5.578;2023-02-28T01:29:12;4.47;;;2.92;;
23720;SDS011;42950;52.134;5.578;2023-02-28T01:31:37;4.43;;;2.80;;
23720;SDS011;42950;52.134;5.578;2023-02-28T01:34:03;4.38;;;2.75;;
23720;SDS011;42950;52.134;5.578;2023-02-28T01:36:29;5.57;;;2.78;;
23720;SDS011;42950;52.134;5.578;2023-02-28T01:38:55;6.93;;;2.78;;
23720;SDS011;42950;52.134;5.578;2023-02-28T01:41:26;7.43;;;3.03;;
23720;SDS011;42950;52.134;5.578;2023-02-28T01:44:04;5.07;;;2.90;;
23720;SDS011;42950;52.134;5.578;2023-02-28T01:46:32;6.05;;;3.00;;
23720;SDS011;42950;52.134;5.578;2023-02-28T01:49:09;5.18;;;3.17;;
23720;SDS011;42950;52.134;5.578;2023-02-28T01:51:42;6.75;;;3.42;;
23720;SDS011;42950;52.134;5.578;2023-02-28T01:54:26;6.38;;;3.15;;
23720;SDS011;42950;52.134;5.578;2023-02-28T01:56:56;5.22;;;3.00;;
23720;SDS011;42950;52.134;5.578;2023-02-28T01:59:35;5.30;;;2.90;;
23720;SDS011;42950;52.134;5.578;2023-02-28T02:02:11;6.63;;;2.92;;
23720;SDS011;42950;52.134;5.578;2023-02-28T02:04:55;4.50;;;2.97;;
23720;SDS011;42950;52.134;5.578;2023-02-28T02:07:38;5.70;;;3.33;;
23720;SDS011;42950;52.134;5.578;2023-02-28T02:10:10;6.28;;;3.05;;
23720;SDS011;42950;52.134;5.578;2023-02-28T02:17:57;6.95;;;3.35;;
23720;SDS011;42950;52.134;5.578;2023-02-28T02:32:18;9.65;;;3.20;;
23720;SDS011;42950;52.134;5.578;2023-02-28T02:40:20;4.70;;;3.15;;
23720;SDS011;42950;52.134;5.578;2023-02-28T02:48:19;5.38;;;3.40;;
23720;SDS011;42950;52.134;5.578;2023-02-28T02:50:51;6.22;;;3.20;;
23720;SDS011;42950;52.134;5.578;2023-02-28T02:53:24;6.63;;;3.05;;
23720;SDS011;42950;52.134;5.578;2023-02-28T02:56:02;6.22;;;3.00;;
23720;SDS011;42950;52.134;5.578;2023-02-28T02:58:33;4.40;;;3.08;;
23720;SDS011;42950;52.134;5.578;2023-02-28T03:01:07;9.75;;;3.42;;
23720;SDS011;42950;52.134;5.578;2023-02-28T03:03:35;5.95;;;3.20;;
23720;SDS011;42950;52.134;5.578;2023-02-28T03:06:02;4.95;;;3.00;;
23720;SDS011;42950;52.134;5.578;2023-02-28T03:08:29;6.00;;;3.33;;
23720;SDS011;42950;52.134;5.578;2023-02-28T03:10:59;6.90;;;3.35;;
23720;SDS011;42950;52.134;5.578;2023-02-28T03:26:34;7.03;;;3.47;;
23720;SDS011;42950;52.134;5.578;2023-02-28T03:29:15;6.72;;;3.45;;
23720;SDS011;42950;52.134;5.578;2023-02-28T03:31:54;4.40;;;3.38;;
23720;SDS011;42950;52.134;5.578;2023-02-28T03:34:34;5.28;;;3.30;;
23720;SDS011;42950;52.134;5.578;2023-02-28T03:37:09;5.30;;;3.53;;
23720;SDS011;42950;52.134;5.578;2023-02-28T03:39:42;4.80;;;3.40;;
23720;SDS011;42950;52.134;5.578;2023-02-28T03:42:19;5.32;;;3.42;;
23720;SDS011;42950;52.134;5.578;2023-02-28T03:44:58;4.85;;;3.30;;
23720;SDS011;42950;52.134;5.578;2023-02-28T03:47:29;7.35;;;3.58;;
23720;SDS011;42950;52.134;5.578;2023-02-28T03:52:44;5.82;;;3.47;;
23720;SDS011;42950;52.134;5.578;2023-02-28T03:55:35;5.55;;;3.83;;
23720;SDS011;42950;52.134;5.578;2023-02-28T04:00:52;5.15;;;3.58;;
23720;SDS011;42950;52.134;5.578;2023-02-28T04:03:23;8.82;;;3.80;;
23720;SDS011;42950;52.134;5.578;2023-02-28T04:05:53;5.00;;;3.03;;
23720;SDS011;42950;52.134;5.578;2023-02-28T04:08:20;7.85;;;3.70;;
23720;SDS011;42950;52.134;5.578;2023-02-28T04:10:50;5.03;;;3.67;;
23720;SDS011;42950;52.134;5.578;2023-02-28T04:13:22;6.15;;;3.35;;
23720;SDS011;42950;52.134;5.578;2023-02-28T04:15:48;6.32;;;3.17;;
23720;SDS011;42950;52.134;5.578;2023-02-28T04:18:15;6.30;;;3.50;;
23720;SDS011;42950;52.134;5.578;2023-02-28T04:20:40;4.45;;;3.25;;
23720;SDS011;42950;52.134;5.578;2023-02-28T04:23:06;3.97;;;3.20;;
23720;SDS011;42950;52.134;5.578;2023-02-28T04:25:32;4.55;;;3.03;;
23720;SDS011;42950;52.134;5.578;2023-02-28T04:27:59;6.95;;;3.20;;
23720;SDS011;42950;52.134;5.578;2023-02-28T04:30:25;6.38;;;3.40;;
23720;SDS011;42950;52.134;5.578;2023-02-28T04:32:51;5.38;;;3.42;;
23720;SDS011;42950;52.134;5.578;2023-02-28T04:35:17;6.40;;;3.33;;
23720;SDS011;42950;52.134;5.578;2023-02-28T04:37:43;5.85;;;3.30;;
23720;SDS011;42950;52.134;5.578;2023-02-28T04:40:09;3.95;;;3.00;;
23720;SDS011;42950;52.134;5.578;2023-02-28T04:42:35;3.83;;;3.17;;
23720;SDS011;42950;52.134;5.578;2023-02-28T04:45:04;4.63;;;3.25;;
23720;SDS011;42950;52.134;5.578;2023-02-28T04:47:30;4.85;;;3.22;;
23720;SDS011;42950;52.134;5.578;2023-02-28T04:49:56;5.07;;;2.70;;
23720;SDS011;42950;52.134;5.578;2023-02-28T04:52:22;5.72;;;2.70;;
23720;SDS011;42950;52.134;5.578;2023-02-28T04:54:48;6.65;;;2.95;;
23720;SDS011;42950;52.134;5.578;2023-02-28T04:57:14;3.75;;;2.65;;
23720;SDS011;42950;52.134;5.578;2023-02-28T04:59:39;4.65;;;2.80;;
23720;SDS011;42950;52.134;5.578;2023-02-28T05:02:05;4.13;;;2.85;;
23720;SDS011;42950;52.134;5.578;2023-02-28T05:04:34;4.53;;;2.80;;
23720;SDS011;42950;52.134;5.578;2023-02-28T05:07:00;4.10;;;3.13;;
23720;SDS011;42950;52.134;5.578;2023-02-28T05:09:26;4.75;;;3.40;;
23720;SDS011;42950;52.134;5.578;2023-02-28T05:11:53;3.92;;;2.95;;
23720;SDS011;42950;52.134;5.578;2023-02-28T05:14:20;3.30;;;2.90;;
23720;SDS011;42950;52.134;5.578;2023-02-28T05:16:46;5.53;;;3.38;;
23720;SDS011;42950;52.134;5.578;2023-02-28T05:19:11;5.88;;;3.05;;
23720;SDS011;42950;52.134;5.578;2023-02-28T05:21:38;4.07;;;2.90;;
23720;SDS011;42950;52.134;5.578;2023-02-28T05:24:12;3.00;;;2.60;;
23720;SDS011;42950;52.134;5.578;2023-02-28T05:26:41;4.13;;;2.90;;
23720;SDS011;42950;52.134;5.578;2023-02-28T05:29:07;3.38;;;2.30;;
23720;SDS011;42950;52.134;5.578;2023-02-28T05:31:36;3.83;;;3.05;;
23720;SDS011;42950;52.134;5.578;2023-02-28T05:34:02;4.75;;;2.70;;
23720;SDS011;42950;52.134;5.578;2023-02-28T05:36:29;3.22;;;2.50;;
23720;SDS011;42950;52.134;5.578;2023-02-28T05:38:55;3.92;;;3.10;;
23720;SDS011;42950;52.134;5.578;2023-02-28T05:41:22;3.17;;;2.80;;
23720;SDS011;42950;52.134;5.578;2023-02-28T05:43:48;4.95;;;3.08;;
23720;SDS011;42950;52.134;5.578;2023-02-28T05:46:15;4.55;;;2.72;;
23720;SDS011;42950;52.134;5.578;2023-02-28T05:48:41;3.72;;;2.88;;
23720;SDS011;42950;52.134;5.578;2023-02-28T05:51:10;4.00;;;2.60;;
23720;SDS011;42950;52.134;5.578;2023-02-28T05:53:38;3.40;;;2.47;;
23720;SDS011;42950;52.134;5.578;2023-02-28T05:56:04;3.92;;;3.20;;
23720;SDS011;42950;52.134;5.578;2023-02-28T05:58:30;4.00;;;2.92;;
23720;SDS011;42950;52.134;5.578;2023-02-28T06:00:56;4.82;;;2.88;;
23720;SDS011;42950;52.134;5.578;2023-02-28T06:03:23;4.07;;;3.45;;
23720;SDS011;42950;52.134;5.578;2023-02-28T06:05:50;3.50;;;2.60;;
23720;SDS011;42950;52.134;5.578;2023-02-28T06:08:16;6.63;;;2.83;;
23720;SDS011;42950;52.134;5.578;2023-02-28T06:10:41;6.25;;;3.30;;
23720;SDS011;42950;52.134;5.578;2023-02-28T06:13:07;4.57;;;3.35;;
23720;SDS011;42950;52.134;5.578;2023-02-28T06:15:33;6.03;;;3.10;;
23720;SDS011;42950;52.134;5.578;2023-02-28T06:17:59;4.30;;;3.47;;
23720;SDS011;42950;52.134;5.578;2023-02-28T06:20:24;5.30;;;3.22;;
23720;SDS011;42950;52.134;5.578;2023-02-28T06:22:54;4.65;;;3.50;;
23720;SDS011;42950;52.134;5.578;2023-02-28T06:25:23;4.53;;;3.15;;
23720;SDS011;42950;52.134;5.578;2023-02-28T06:27:50;7.00;;;3.53;;
23720;SDS011;42950;52.134;5.578;2023-02-28T06:30:16;3.97;;;3.05;;
23720;SDS011;42950;52.134;5.578;2023-02-28T06:32:41;4.28;;;3.20;;
23720;SDS011;42950;52.134;5.578;2023-02-28T06:35:07;4.80;;;3.60;;
23720;SDS011;42950;52.134;5.578;2023-02-28T06:37:34;5.68;;;3.63;;
23720;SDS011;42950;52.134;5.578;2023-02-28T06:39:59;6.90;;;3.70;;
23720;SDS011;42950;52.134;5.578;2023-02-28T06:42:25;6.88;;;3.80;;
23720;SDS011;42950;52.134;5.578;2023-02-28T06:44:53;4.22;;;3.28;;
23720;SDS011;42950;52.134;5.578;2023-02-28T06:47:22;4.80;;;3.70;;
23720;SDS011;42950;52.134;5.578;2023-02-28T06:49:48;6.50;;;4.00;;
23720;SDS011;42950;52.134;5.578;2023-02-28T06:52:14;6.85;;;4.00;;
23720;SDS011;42950;52.134;5.578;2023-02-28T06:54:40;6.80;;;4.22;;
23720;SDS011;42950;52.134;5.578;2023-02-28T06:57:06;10.23;;;5.43;;
23720;SDS011;42950;52.134;5.578;2023-02-28T06:59:31;8.77;;;4.75;;
23720;SDS011;42950;52.134;5.578;2023-02-28T07:01:57;9.18;;;5.22;;
23720;SDS011;42950;52.134;5.578;2023-02-28T07:04:23;8.57;;;5.10;;
23720;SDS011;42950;52.134;5.578;2023-02-28T07:06:48;9.93;;;4.88;;
23720;SDS011;42950;52.134;5.578;2023-02-28T07:09:14;5.90;;;5.03;;
23720;SDS011;42950;52.134;5.578;2023-02-28T07:11:40;9.50;;;4.80;;
23720;SDS011;42950;52.134;5.578;2023-02-28T07:14:07;9.13;;;5.40;;
23720;SDS011;42950;52.134;5.578;2023-02-28T07:16:33;8.68;;;5.18;;
23720;SDS011;42950;52.134;5.578;2023-02-28T07:19:00;9.07;;;4.95;;
23720;SDS011;42950;52.134;5.578;2023-02-28T07:21:25;6.28;;;5.03;;
23720;SDS011;42950;52.134;5.578;2023-02-28T07:23:51;7.65;;;4.53;;
23720;SDS011;42950;52.134;5.578;2023-02-28T07:26:17;5.00;;;4.35;;
23720;SDS011;42950;52.134;5.578;2023-02-28T07:28:45;5.57;;;4.30;;
23720;SDS011;42950;52.134;5.578;2023-02-28T07:31:12;4.10;;;3.70;;
23720;SDS011;42950;52.134;5.578;2023-02-28T07:33:42;4.65;;;4.15;;
23720;SDS011;42950;52.134;5.578;2023-02-28T07:36:17;7.97;;;4.80;;
23720;SDS011;42950;52.134;5.578;2023-02-28T07:38:46;6.18;;;4.00;;
23720;SDS011;42950;52.134;5.578;2023-02-28T07:41:13;7.22;;;4.40;;
23720;SDS011;42950;52.134;5.578;2023-02-28T07:43:43;5.75;;;4.15;;
23720;SDS011;42950;52.134;5.578;2023-02-28T07:46:10;9.48;;;4.97;;
23720;SDS011;42950;52.134;5.578;2023-02-28T07:48:39;12.05;;;6.55;;
23720;SDS011;42950;52.134;5.578;2023-02-28T07:51:05;17.58;;;8.85;;
23720;SDS011;42950;52.134;5.578;2023-02-28T07:53:31;15.73;;;9.27;;
23720;SDS011;42950;52.134;5.578;2023-02-28T07:55:57;14.60;;;7.70;;
23720;SDS011;42950;52.134;5.578;2023-02-28T07:58:24;9.63;;;6.47;;
23720;SDS011;42950;52.134;5.578;2023-02-28T08:00:50;14.88;;;5.45;;
23720;SDS011;42950;52.134;5.578;2023-02-28T08:03:20;6.80;;;4.65;;
23720;SDS011;42950;52.134;5.578;2023-02-28T08:05:47;8.55;;;3.70;;
23720;SDS011;42950;52.134;5.578;2023-02-28T08:08:13;5.35;;;3.97;;
23720;SDS011;42950;52.134;5.578;2023-02-28T08:10:40;6.03;;;3.70;;
23720;SDS011;42950;52.134;5.578;2023-02-28T08:13:05;4.57;;;3.75;;
23720;SDS011;42950;52.134;5.578;2023-02-28T08:15:31;7.78;;;4.13;;
23720;SDS011;42950;52.134;5.578;2023-02-28T08:17:57;5.22;;;3.58;;
23720;SDS011;42950;52.134;5.578;2023-02-28T08:20:23;4.75;;;3.55;;
23720;SDS011;42950;52.134;5.578;2023-02-28T08:22:49;6.07;;;3.35;;
23720;SDS011;42950;52.134;5.578;2023-02-28T08:25:15;7.03;;;3.28;;
23720;SDS011;42950;52.134;5.578;2023-02-28T08:27:40;5.07;;;3.05;;
23720;SDS011;42950;52.134;5.578;2023-02-28T08:30:06;5.20;;;3.40;;
23720;SDS011;42950;52.134;5.578;2023-02-28T08:32:32;3.53;;;2.97;;
23720;SDS011;42950;52.134;5.578;2023-02-28T08:34:58;4.60;;;3.38;;
23720;SDS011;42950;52.134;5.578;2023-02-28T08:37:24;3.50;;;2.97;;
23720;SDS011;42950;52.134;5.578;2023-02-28T08:39:50;5.93;;;3.67;;
23720;SDS011;42950;52.134;5.578;2023-02-28T08:42:16;6.82;;;3.78;;
23720;SDS011;42950;52.134;5.578;2023-02-28T08:44:41;5.53;;;2.75;;
23720;SDS011;42950;52.134;5.578;2023-02-28T08:47:07;3.30;;;2.47;;
23720;SDS011;42950;52.134;5.578;2023-02-28T08:49:33;3.08;;;2.42;;
23720;SDS011;42950;52.134;5.578;2023-02-28T08:51:58;4.28;;;2.58;;
23720;SDS011;42950;52.134;5.578;2023-02-28T08:54:24;3.83;;;2.45;;
23720;SDS011;42950;52.134;5.578;2023-02-28T08:56:49;2.05;;;1.83;;
23720;SDS011;42950;52.134;5.578;2023-02-28T08:59:15;1.60;;;1.50;;
23720;SDS011;42950;52.134;5.578;2023-02-28T09:01:41;4.40;;;1.70;;
23720;SDS011;42950;52.134;5.578;2023-02-28T09:04:08;2.70;;;1.65;;
23720;SDS011;42950;52.134;5.578;2023-02-28T09:06:35;1.38;;;1.27;;
23720;SDS011;42950;52.134;5.578;2023-02-28T09:09:01;1.42;;;1.13;;
23720;SDS011;42950;52.134;5.578;2023-02-28T09:11:28;2.53;;;1.20;;
23720;SDS011;42950;52.134;5.578;2023-02-28T09:13:54;2.47;;;1.40;;
23720;SDS011;42950;52.134;5.578;2023-02-28T09:16:20;3.50;;;1.50;;
23720;SDS011;42950;52.134;5.578;2023-02-28T09:18:46;1.75;;;1.50;;
23720;SDS011;42950;52.134;5.578;2023-02-28T09:21:13;1.73;;;1.35;;
23720;SDS011;42950;52.134;5.578;2023-02-28T09:23:41;1.05;;;0.95;;
23720;SDS011;42950;52.134;5.578;2023-02-28T09:26:08;3.55;;;1.25;;
23720;SDS011;42950;52.134;5.578;2023-02-28T09:28:37;1.30;;;0.98;;
23720;SDS011;42950;52.134;5.578;2023-02-28T09:31:03;1.52;;;1.20;;
23720;SDS011;42950;52.134;5.578;2023-02-28T09:33:29;2.95;;;1.35;;
23720;SDS011;42950;52.134;5.578;2023-02-28T09:35:59;3.13;;;1.60;;
23720;SDS011;42950;52.134;5.578;2023-02-28T09:38:26;1.95;;;1.40;;
23720;SDS011;42950;52.134;5.578;2023-02-28T09:40:53;1.77;;;1.45;;
23720;SDS011;42950;52.134;5.578;2023-02-28T09:43:23;2.50;;;1.70;;
23720;SDS011;42950;52.134;5.578;2023-02-28T09:46:02;2.83;;;1.50;;
23720;SDS011;42950;52.134;5.578;2023-02-28T09:48:39;2.25;;;1.50;;
23720;SDS011;42950;52.134;5.578;2023-02-28T09:51:15;1.92;;;1.38;;
23720;SDS011;42950;52.134;5.578;2023-02-28T09:53:48;1.60;;;1.20;;
23720;SDS011;42950;52.134;5.578;2023-02-28T09:56:15;1.58;;;1.48;;
23720;SDS011;42950;52.134;5.578;2023-02-28T10:02:08;2.15;;;1.58;;
23720;SDS011;42950;52.134;5.578;2023-02-28T10:05:00;1.40;;;1.30;;
23720;SDS011;42950;52.134;5.578;2023-02-28T10:07:55;3.25;;;1.30;;
23720;SDS011;42950;52.134;5.578;2023-02-28T10:10:32;1.10;;;1.00;;
23720;SDS011;42950;52.134;5.578;2023-02-28T10:13:04;1.17;;;0.90;;
23720;SDS011;42950;52.134;5.578;2023-02-28T10:15:53;2.17;;;1.20;;
23720;SDS011;42950;52.134;5.578;2023-02-28T10:18:25;1.20;;;1.10;;
23720;SDS011;42950;52.134;5.578;2023-02-28T10:20:55;2.65;;;1.30;;
23720;SDS011;42950;52.134;5.578;2023-02-28T10:23:56;1.50;;;1.20;;
23720;SDS011;42950;52.134;5.578;2023-02-28T10:26:14;2.60;;;1.05;;
23720;SDS011;42950;52.134;5.578;2023-02-28T10:28:42;1.58;;;1.02;;
23720;SDS011;42950;52.134;5.578;2023-02-28T10:31:11;1.23;;;1.13;;
23720;SDS011;42950;52.134;5.578;2023-02-28T10:33:41;1.20;;;1.10;;
23720;SDS011;42950;52.134;5.578;2023-02-28T10:36:08;2.22;;;1.45;;
23720;SDS011;42950;52.134;5.578;2023-02-28T10:38:45;3.00;;;1.10;;
23720;SDS011;42950;52.134;5.578;2023-02-28T10:41:12;1.23;;;1.13;;
23720;SDS011;42950;52.134;5.578;2023-02-28T10:43:40;2.33;;;1.27;;
23720;SDS011;42950;52.134;5.578;2023-02-28T10:48:48;1.42;;;1.15;;
23720;SDS011;42950;52.134;5.578;2023-02-28T10:51:25;1.73;;;1.27;;
23720;SDS011;42950;52.134;5.578;2023-02-28T10:54:03;1.88;;;1.30;;
23720;SDS011;42950;52.134;5.578;2023-02-28T10:56:30;1.70;;;1.30;;
23720;SDS011;42950;52.134;5.578;2023-02-28T11:01:46;2.10;;;1.23;;
23720;SDS011;42950;52.134;5.578;2023-02-28T11:04:18;1.60;;;1.33;;
23720;SDS011;42950;52.134;5.578;2023-02-28T11:06:46;1.38;;;1.20;;
23720;SDS011;42950;52.134;5.578;2023-02-28T11:09:27;2.10;;;1.33;;
23720;SDS011;42950;52.134;5.578;2023-02-28T11:11:55;3.85;;;1.20;;
23720;SDS011;42950;52.134;5.578;2023-02-28T11:14:28;1.45;;;1.25;;
23720;SDS011;42950;52.134;5.578;2023-02-28T11:16:57;2.53;;;1.20;;
23720;SDS011;42950;52.134;5.578;2023-02-28T11:19:38;1.67;;;1.17;;
23720;SDS011;42950;52.134;5.578;2023-02-28T11:22:10;1.48;;;1.13;;
23720;SDS011;42950;52.134;5.578;2023-02-28T11:24:43;1.83;;;1.30;;
23720;SDS011;42950;52.134;5.578;2023-02-28T11:30:34;1.30;;;1.20;;
23720;SDS011;42950;52.134;5.578;2023-02-28T11:32:59;1.70;;;1.27;;
23720;SDS011;42950;52.134;5.578;2023-02-28T11:35:36;1.63;;;1.20;;
23720;SDS011;42950;52.134;5.578;2023-02-28T11:38:05;1.65;;;1.17;;
23720;SDS011;42950;52.134;5.578;2023-02-28T11:46:20;1.58;;;1.23;;
23720;SDS011;42950;52.134;5.578;2023-02-28T11:48:55;2.30;;;1.10;;
23720;SDS011;42950;52.134;5.578;2023-02-28T11:51:23;1.23;;;1.08;;
23720;SDS011;42950;52.134;5.578;2023-02-28T12:02:22;1.80;;;1.33;;
23720;SDS011;42950;52.134;5.578;2023-02-28T12:05:02;1.67;;;1.42;;
23720;SDS011;42950;52.134;5.578;2023-02-28T12:10:28;1.60;;;1.50;;
23720;SDS011;42950;52.134;5.578;2023-02-28T12:20:59;1.40;;;1.10;;
23720;SDS011;42950;52.134;5.578;2023-02-28T12:28:52;1.58;;;1.10;;
23720;SDS011;42950;52.134;5.578;2023-02-28T12:31:24;1.52;;;1.42;;
23720;SDS011;42950;52.134;5.578;2023-02-28T12:33:56;1.20;;;1.10;;
23720;SDS011;42950;52.134;5.578;2023-02-28T12:36:26;2.13;;;1.42;;
23720;SDS011;42950;52.134;5.578;2023-02-28T12:44:14;1.40;;;1.30;;
23720;SDS011;42950;52.134;5.578;2023-02-28T12:46:51;2.10;;;1.50;;
23720;SDS011;42950;52.134;5.578;2023-02-28T12:49:34;2.30;;;1.60;;
23720;SDS011;42950;52.134;5.578;2023-02-28T12:52:16;2.20;;;1.63;;
23720;SDS011;42950;52.134;5.578;2023-02-28T12:55:03;1.73;;;1.27;;
23720;SDS011;42950;52.134;5.578;2023-02-28T13:01:04;1.90;;;1.50;;
23720;SDS011;42950;52.134;5.578;2023-02-28T13:03:35;1.73;;;1.58;;
23720;SDS011;42950;52.134;5.578;2023-02-28T13:11:52;4.40;;;1.50;;
23720;SDS011;42950;52.134;5.578;2023-02-28T13:14:26;2.97;;;1.50;;
23720;SDS011;42950;52.134;5.578;2023-02-28T13:19:44;2.13;;;1.40;;
23720;SDS011;42950;52.134;5.578;2023-02-28T13:22:21;2.10;;;1.80;;
23720;SDS011;42950;52.134;5.578;2023-02-28T13:28:00;2.08;;;1.50;;
23720;SDS011;42950;52.134;5.578;2023-02-28T13:35:46;1.70;;;1.55;;
23720;SDS011;42950;52.134;5.578;2023-02-28T13:38:13;1.98;;;1.70;;
23720;SDS011;42950;52.134;5.578;2023-02-28T13:40:46;2.35;;;1.52;;
23720;SDS011;42950;52.134;5.578;2023-02-28T13:43:12;2.38;;;1.67;;
23720;SDS011;42950;52.134;5.578;2023-02-28T13:46:03;2.75;;;1.42;;
23720;SDS011;42950;52.134;5.578;2023-02-28T13:48:29;1.98;;;1.73;;
23720;SDS011;42950;52.134;5.578;2023-02-28T13:50:55;1.70;;;1.60;;
23720;SDS011;42950;52.134;5.578;2023-02-28T13:53:30;1.80;;;1.42;;
23720;SDS011;42950;52.134;5.578;2023-02-28T13:56:10;2.78;;;1.70;;
23720;SDS011;42950;52.134;5.578;2023-02-28T13:58:55;3.35;;;1.80;;
23720;SDS011;42950;52.134;5.578;2023-02-28T14:01:51;2.03;;;1.70;;
23720;SDS011;42950;52.134;5.578;2023-02-28T14:07:18;1.88;;;1.50;;
23720;SDS011;42950;52.134;5.578;2023-02-28T14:09:55;1.80;;;1.70;;
23720;SDS011;42950;52.134;5.578;2023-02-28T14:18:23;2.15;;;1.60;;
23720;SDS011;42950;52.134;5.578;2023-02-28T14:20:58;2.60;;;1.83;;
23720;SDS011;42950;52.134;5.578;2023-02-28T14:34:50;2.20;;;1.70;;
23720;SDS011;42950;52.134;5.578;2023-02-28T14:37:28;1.63;;;1.52;;
23720;SDS011;42950;52.134;5.578;2023-02-28T14:39:58;1.63;;;1.50;;
23720;SDS011;42950;52.134;5.578;2023-02-28T14:45:24;1.65;;;1.38;;
23720;SDS011;42950;52.134;5.578;2023-02-28T14:47:53;2.33;;;1.52;;
23720;SDS011;42950;52.134;5.578;2023-02-28T14:50:24;2.42;;;1.60;;
23720;SDS011;42950;52.134;5.578;2023-02-28T14:52:56;2.00;;;1.80;;
23720;SDS011;42950;52.134;5.578;2023-02-28T14:55:26;2.17;;;1.60;;
23720;SDS011;42950;52.134;5.578;2023-02-28T14:57:55;1.75;;;1.50;;
23720;SDS011;42950;52.134;5.578;2023-02-28T15:00:30;3.45;;;1.50;;
23720;SDS011;42950;52.134;5.578;2023-02-28T15:03:11;2.17;;;1.45;;
23720;SDS011;42950;52.134;5.578;2023-02-28T15:05:56;2.13;;;1.75;;
23720;SDS011;42950;52.134;5.578;2023-02-28T15:08:23;3.95;;;2.13;;
23720;SDS011;42950;52.134;5.578;2023-02-28T15:13:18;2.83;;;1.60;;
23720;SDS011;42950;52.134;5.578;2023-02-28T15:15:45;1.83;;;1.60;;
23720;SDS011;42950;52.134;5.578;2023-02-28T15:20:54;3.25;;;1.70;;
23720;SDS011;42950;52.134;5.578;2023-02-28T15:23:22;2.30;;;1.60;;
23720;SDS011;42950;52.134;5.578;2023-02-28T15:25:48;1.35;;;1.25;;
23720;SDS011;42950;52.134;5.578;2023-02-28T15:28:18;1.63;;;1.35;;
23720;SDS011;42950;52.134;5.578;2023-02-28T15:30:52;1.60;;;1.30;;
23720;SDS011;42950;52.134;5.578;2023-02-28T15:33:38;1.50;;;1.40;;
23720;SDS011;42950;52.134;5.578;2023-02-28T15:36:18;1.80;;;1.23;;
23720;SDS011;42950;52.134;5.578;2023-02-28T15:38:50;1.55;;;1.20;;
23720;SDS011;42950;52.134;5.578;2023-02-28T15:41:30;2.95;;;1.40;;
23720;SDS011;42950;52.134;5.578;2023-02-28T15:47:14;3.65;;;1.20;;
23720;SDS011;42950;52.134;5.578;2023-02-28T15:49:51;1.85;;;1.25;;
23720;SDS011;42950;52.134;5.578;2023-02-28T15:52:34;1.77;;;1.20;;
23720;SDS011;42950;52.134;5.578;2023-02-28T15:57:38;1.65;;;1.30;;
23720;SDS011;42950;52.134;5.578;2023-02-28T16:00:06;2.05;;;1.27;;
23720;SDS011;42950;52.134;5.578;2023-02-28T16:02:37;3.05;;;1.48;;
23720;SDS011;42950;52.134;5.578;2023-02-28T16:07:36;2.38;;;1.60;;
23720;SDS011;42950;52.134;5.578;2023-02-28T16:10:03;2.08;;;1.77;;
23720;SDS011;42950;52.134;5.578;2023-02-28T16:12:31;2.40;;;1.50;;
23720;SDS011;42950;52.134;5.578;2023-02-28T16:15:03;3.17;;;1.80;;
23720;SDS011;42950;52.134;5.578;2023-02-28T16:17:34;3.47;;;1.92;;
23720;SDS011;42950;52.134;5.578;2023-02-28T16:20:05;2.00;;;1.83;;
23720;SDS011;42950;52.134;5.578;2023-02-28T16:22:51;4.93;;;2.00;;
23720;SDS011;42950;52.134;5.578;2023-02-28T16:25:19;2.15;;;1.80;;
23720;SDS011;42950;52.134;5.578;2023-02-28T16:27:48;4.13;;;1.77;;
23720;SDS011;42950;52.134;5.578;2023-02-28T16:30:21;2.00;;;1.50;;
23720;SDS011;42950;52.134;5.578;2023-02-28T16:32:51;2.00;;;1.65;;
23720;SDS011;42950;52.134;5.578;2023-02-28T16:35:19;3.25;;;1.85;;
23720;SDS011;42950;52.134;5.578;2023-02-28T16:37:45;2.45;;;1.60;;
23720;SDS011;42950;52.134;5.578;2023-02-28T16:40:14;4.82;;;1.75;;
23720;SDS011;42950;52.134;5.578;2023-02-28T16:42:41;1.80;;;1.70;;
23720;SDS011;42950;52.134;5.578;2023-02-28T16:45:16;3.10;;;2.10;;
23720;SDS011;42950;52.134;5.578;2023-02-28T16:47:44;3.03;;;2.20;;
23720;SDS011;42950;52.134;5.578;2023-02-28T16:52:46;4.88;;;2.38;;
23720;SDS011;42950;52.134;5.578;2023-02-28T16:55:14;3.97;;;2.97;;
23720;SDS011;42950;52.134;5.578;2023-02-28T16:57:40;5.30;;;3.05;;
23720;SDS011;42950;52.134;5.578;2023-02-28T17:00:07;2.95;;;2.22;;
23720;SDS011;42950;52.134;5.578;2023-02-28T17:02:35;2.75;;;2.22;;
23720;SDS011;42950;52.134;5.578;2023-02-28T17:05:01;3.95;;;2.42;;
23720;SDS011;42950;52.134;5.578;2023-02-28T17:07:27;5.35;;;2.92;;
23720;SDS011;42950;52.134;5.578;2023-02-28T17:09:52;3.30;;;2.97;;
23720;SDS011;42950;52.134;5.578;2023-02-28T17:12:18;3.53;;;2.67;;
23720;SDS011;42950;52.134;5.578;2023-02-28T17:14:43;5.35;;;2.40;;
23720;SDS011;42950;52.134;5.578;2023-02-28T17:17:19;3.50;;;2.72;;
23720;SDS011;42950;52.134;5.578;2023-02-28T17:19:46;4.75;;;3.20;;
23720;SDS011;42950;52.134;5.578;2023-02-28T17:22:12;4.05;;;3.40;;
23720;SDS011;42950;52.134;5.578;2023-02-28T17:24:38;5.57;;;2.80;;
23720;SDS011;42950;52.134;5.578;2023-02-28T17:27:03;5.05;;;2.60;;
23720;SDS011;42950;52.134;5.578;2023-02-28T17:29:29;5.97;;;3.03;;
23720;SDS011;42950;52.134;5.578;2023-02-28T17:31:55;5.95;;;3.50;;
23720;SDS011;42950;52.134;5.578;2023-02-28T17:34:21;8.00;;;3.78;;
23720;SDS011;42950;52.134;5.578;2023-02-28T17:36:47;6.53;;;3.58;;